createdAt,value
2022-12-06T00:00:02.599Z,100983.00
2022-12-06T00:02:30.344Z,100996.00
2022-12-06T00:04:58.032Z,100993.00
2022-12-06T00:07:27.138Z,100998.00
2022-12-06T00:09:54.798Z,100994.00
2022-12-06T00:12:22.476Z,100995.00
2022-12-06T00:14:50.152Z,100996.00
2022-12-06T00:17:17.864Z,100984.00
2022-12-06T00:19:45.554Z,100997.00
2022-12-06T00:22:13.251Z,100996.00
2022-12-06T00:24:42.503Z,100984.00
2022-12-06T00:27:10.157Z,100999.00
2022-12-06T00:29:37.820Z,100986.00
2022-12-06T00:32:05.977Z,100985.00
2022-12-06T00:34:33.681Z,100990.00
2022-12-06T00:37:01.378Z,100988.00
2022-12-06T00:39:29.041Z,100980.00
2022-12-06T00:41:58.079Z,100980.00
2022-12-06T00:44:25.719Z,100978.00
2022-12-06T00:46:53.435Z,100975.00
2022-12-06T00:49:21.114Z,100979.00
2022-12-06T00:51:48.758Z,100951.00
2022-12-06T00:54:16.805Z,100972.00
2022-12-06T00:56:44.448Z,100976.00
2022-12-06T00:59:13.486Z,100972.00
2022-12-06T01:01:42.268Z,100971.00
2022-12-06T01:04:10.320Z,100968.00
2022-12-06T01:06:38.615Z,100980.00
2022-12-06T01:09:09.098Z,100980.00
2022-12-06T01:11:37.134Z,100972.00
2022-12-06T01:14:04.932Z,100967.00
2022-12-06T01:16:34.999Z,100981.00
2022-12-06T01:19:06.399Z,100967.00
2022-12-06T01:21:34.117Z,100966.00
2022-12-06T01:24:01.811Z,100967.00
2022-12-06T01:26:31.126Z,100968.00
2022-12-06T01:28:59.461Z,100970.00
2022-12-06T01:31:30.855Z,100975.00
2022-12-06T01:34:04.816Z,100972.00
2022-12-06T01:36:32.652Z,100972.00
2022-12-06T01:39:02.227Z,100967.00
2022-12-06T01:41:30.050Z,100962.00
2022-12-06T01:43:57.884Z,100956.00
2022-12-06T01:46:32.946Z,100964.00
2022-12-06T01:49:10.387Z,100950.00
2022-12-06T01:51:38.494Z,100957.00
2022-12-06T01:54:10.403Z,100952.00
2022-12-06T01:56:38.815Z,100940.00
2022-12-06T01:59:08.547Z,100941.00
2022-12-06T02:01:36.876Z,100940.00
2022-12-06T02:04:06.979Z,100948.00
2022-12-06T02:06:35.031Z,100946.00
2022-12-06T02:09:06.190Z,100942.00
2022-12-06T02:11:35.590Z,100941.00
2022-12-06T02:14:05.512Z,100944.00
2022-12-06T02:17:06.472Z,100940.00
2022-12-06T02:20:03.971Z,100930.00
2022-12-06T02:23:08.138Z,100916.00
2022-12-06T02:25:55.398Z,100921.00
2022-12-06T02:28:53.137Z,100925.00
2022-12-06T02:31:28.447Z,100921.00
2022-12-06T02:34:01.469Z,100919.00
2022-12-06T02:36:38.345Z,100916.00
2022-12-06T02:39:10.672Z,100921.00
2022-12-06T02:41:42.378Z,100918.00
2022-12-06T02:44:27.271Z,100925.00
2022-12-06T02:46:58.530Z,100916.00
2022-12-06T02:49:28.809Z,100906.00
2022-12-06T02:51:58.075Z,100918.00
2022-12-06T02:54:28.009Z,100914.00
2022-12-06T02:56:55.709Z,100911.00
2022-12-06T02:59:23.392Z,100908.00
2022-12-06T03:01:55.046Z,100914.00
2022-12-06T03:04:49.543Z,100914.00
2022-12-06T03:07:30.911Z,100917.00
2022-12-06T03:10:10.748Z,100913.00
2022-12-06T03:12:46.803Z,100903.00
2022-12-06T03:15:19.395Z,100901.00
2022-12-06T03:17:51.803Z,100898.00
2022-12-06T03:20:26.507Z,100907.00
2022-12-06T03:22:59.126Z,100908.00
2022-12-06T03:25:28.162Z,100915.00
2022-12-06T03:27:58.433Z,100895.00
2022-12-06T03:30:26.157Z,100907.00
2022-12-06T03:32:54.071Z,100899.00
2022-12-06T03:35:27.945Z,100905.00
2022-12-06T03:38:00.062Z,100904.00
2022-12-06T03:40:30.395Z,100902.00
2022-12-06T03:42:58.888Z,100905.00
2022-12-06T03:45:33.916Z,100908.00
2022-12-06T03:48:05.768Z,100911.00
2022-12-06T03:50:39.244Z,100907.00
2022-12-06T03:53:07.189Z,100896.00
2022-12-06T03:55:34.892Z,100891.00
2022-12-06T03:58:02.555Z,100895.00
2022-12-06T04:00:30.242Z,100883.00
2022-12-06T04:02:57.906Z,100881.00
2022-12-06T04:05:25.570Z,100882.00
2022-12-06T04:07:54.708Z,100876.00
2022-12-06T04:10:22.887Z,100875.00
2022-12-06T04:13:02.807Z,100884.00
2022-12-06T04:15:33.395Z,100881.00
2022-12-06T04:18:13.973Z,100883.00
2022-12-06T04:21:02.055Z,100879.00
2022-12-06T04:23:35.249Z,100883.00
2022-12-06T04:26:04.000Z,100882.00
2022-12-06T04:28:49.437Z,100877.00
2022-12-06T04:31:34.807Z,100868.00
2022-12-06T04:34:20.408Z,100859.00
2022-12-06T04:37:06.288Z,100864.00
2022-12-06T04:39:36.099Z,100864.00
2022-12-06T04:42:22.206Z,100864.00
2022-12-06T04:44:49.845Z,100861.00
2022-12-06T04:47:17.893Z,100858.00
2022-12-06T04:49:45.636Z,100853.00
2022-12-06T04:52:13.665Z,100854.00
2022-12-06T04:54:43.217Z,100853.00
2022-12-06T04:57:12.931Z,100858.00
2022-12-06T04:59:42.033Z,100855.00
2022-12-06T05:02:12.741Z,100853.00
2022-12-06T05:04:40.437Z,100864.00
2022-12-06T05:07:08.363Z,100850.00
2022-12-06T05:09:36.060Z,100850.00
2022-12-06T05:12:05.341Z,100856.00
2022-12-06T05:14:33.001Z,100853.00
2022-12-06T05:17:00.719Z,100852.00
2022-12-06T05:19:28.541Z,100852.00
2022-12-06T05:21:56.300Z,100856.00
2022-12-06T05:24:23.967Z,100846.00
2022-12-06T05:26:51.685Z,100854.00
2022-12-06T05:29:20.899Z,100853.00
2022-12-06T05:31:48.643Z,100849.00
2022-12-06T05:34:16.423Z,100855.00
2022-12-06T05:36:45.850Z,100853.00
2022-12-06T05:39:13.584Z,100847.00
2022-12-06T05:41:41.290Z,100844.00
2022-12-06T05:44:11.490Z,100845.00
2022-12-06T05:46:40.622Z,100846.00
2022-12-06T05:49:08.491Z,100836.00
2022-12-06T05:51:36.364Z,100831.00
2022-12-06T05:54:06.479Z,100839.00
2022-12-06T05:56:34.657Z,100826.00
2022-12-06T05:59:03.285Z,100832.00
2022-12-06T06:01:31.051Z,100825.00
2022-12-06T06:04:00.101Z,100824.00
2022-12-06T06:06:28.367Z,100830.00
2022-12-06T06:08:56.027Z,100834.00
2022-12-06T06:11:23.807Z,100834.00
2022-12-06T06:13:51.594Z,100839.00
2022-12-06T06:16:19.469Z,100835.00
2022-12-06T06:18:47.220Z,100828.00
2022-12-06T06:21:16.311Z,100831.00
2022-12-06T06:23:43.977Z,100823.00
2022-12-06T06:26:12.966Z,100829.00
2022-12-06T06:28:40.687Z,100824.00
2022-12-06T06:31:09.149Z,100824.00
2022-12-06T06:33:37.174Z,100827.00
2022-12-06T06:36:05.425Z,100817.00
2022-12-06T06:38:34.618Z,100832.00
2022-12-06T06:41:02.697Z,100819.00
2022-12-06T06:43:30.615Z,100830.00
2022-12-06T06:45:59.933Z,100814.00
2022-12-06T06:48:30.138Z,100819.00
2022-12-06T06:51:02.848Z,100825.00
2022-12-06T06:53:31.377Z,100827.00
2022-12-06T06:56:00.485Z,100828.00
2022-12-06T06:58:28.212Z,100827.00
2022-12-06T07:00:58.691Z,100823.00
2022-12-06T07:03:27.816Z,100834.00
2022-12-06T07:05:57.650Z,100833.00
2022-12-06T07:08:25.626Z,100833.00
2022-12-06T07:10:54.855Z,100846.00
2022-12-06T07:13:25.529Z,100839.00
2022-12-06T07:15:53.683Z,100846.00
2022-12-06T07:18:22.583Z,100850.00
2022-12-06T07:20:51.322Z,100859.00
2022-12-06T07:23:18.977Z,100859.00
2022-12-06T07:25:46.882Z,100864.00
2022-12-06T07:28:14.607Z,100870.00
2022-12-06T07:30:43.919Z,100871.00
2022-12-06T07:33:11.929Z,100863.00
2022-12-06T07:36:10.835Z,100859.00
2022-12-06T07:38:27.335Z,100868.00
2022-12-06T07:41:04.493Z,100870.00
2022-12-06T07:43:49.894Z,100871.00
2022-12-06T07:46:19.048Z,100864.00
2022-12-06T07:48:46.764Z,100868.00
2022-12-06T07:51:14.590Z,100868.00
2022-12-06T07:53:42.902Z,100865.00
2022-12-06T07:56:11.578Z,100858.00
2022-12-06T07:58:39.639Z,100866.00
2022-12-06T08:01:07.682Z,100862.00
2022-12-06T08:03:36.753Z,100864.00
2022-12-06T08:06:04.594Z,100868.00
2022-12-06T08:08:32.977Z,100860.00
2022-12-06T08:11:01.101Z,100872.00
2022-12-06T08:13:29.146Z,100869.00
2022-12-06T08:15:57.325Z,100868.00
2022-12-06T08:18:25.569Z,100877.00
2022-12-06T08:20:54.840Z,100876.00
2022-12-06T08:23:22.693Z,100881.00
2022-12-06T08:25:57.821Z,100885.00
2022-12-06T08:28:25.591Z,100889.00
2022-12-06T08:30:57.010Z,100871.00
2022-12-06T08:33:28.200Z,100883.00
2022-12-06T08:35:57.222Z,100880.00
2022-12-06T08:38:24.934Z,100877.00
2022-12-06T08:40:52.726Z,100889.00
2022-12-06T08:43:20.419Z,100881.00
2022-12-06T08:45:51.595Z,100884.00
2022-12-06T08:48:19.882Z,100881.00
2022-12-06T08:50:47.576Z,100885.00
2022-12-06T08:53:16.651Z,100888.00
2022-12-06T08:56:00.345Z,100884.00
2022-12-06T08:58:29.923Z,100889.00
2022-12-06T09:00:57.646Z,100888.00
2022-12-06T09:03:26.510Z,100887.00
2022-12-06T09:05:54.325Z,100900.00
2022-12-06T09:08:23.431Z,100894.00
2022-12-06T09:10:51.282Z,100898.00
2022-12-06T09:13:19.067Z,100901.00
2022-12-06T09:15:46.845Z,100901.00
2022-12-06T09:18:14.610Z,100899.00
2022-12-06T09:20:42.858Z,100898.00
2022-12-06T09:23:10.894Z,100906.00
2022-12-06T09:25:42.370Z,100894.00
2022-12-06T09:28:11.363Z,100898.00
2022-12-06T09:30:39.293Z,100904.00
2022-12-06T09:33:07.134Z,100891.00
2022-12-06T09:35:36.463Z,100900.00
2022-12-06T09:38:04.879Z,100898.00
2022-12-06T09:40:39.789Z,100899.00
2022-12-06T09:43:27.524Z,100896.00
2022-12-06T09:46:17.954Z,100895.00
2022-12-06T09:49:06.905Z,100894.00
2022-12-06T09:51:49.693Z,100891.00
2022-12-06T09:54:30.692Z,100885.00
2022-12-06T09:57:02.898Z,100889.00
2022-12-06T09:59:40.822Z,100891.00
2022-12-06T10:02:32.004Z,100892.00
2022-12-06T10:05:31.065Z,100886.00
2022-12-06T10:08:08.703Z,100887.00
2022-12-06T10:10:49.265Z,100886.00
2022-12-06T10:13:28.025Z,100882.00
2022-12-06T10:16:07.907Z,100884.00
2022-12-06T10:18:49.365Z,100884.00
2022-12-06T10:21:23.871Z,100875.00
2022-12-06T10:24:02.283Z,100879.00
2022-12-06T10:26:36.201Z,100886.00
2022-12-06T10:29:20.318Z,100876.00
2022-12-06T10:31:57.626Z,100869.00
2022-12-06T10:34:36.754Z,100876.00
2022-12-06T10:37:18.036Z,100874.00
2022-12-06T10:39:52.212Z,100861.00
2022-12-06T10:42:30.704Z,100867.00
2022-12-06T10:45:25.079Z,100872.00
2022-12-06T10:47:56.924Z,100860.00
2022-12-06T10:50:28.593Z,100874.00
2022-12-06T10:53:02.985Z,100866.00
2022-12-06T10:55:35.880Z,100847.00
2022-12-06T10:58:12.044Z,100862.00
2022-12-06T11:00:46.485Z,100867.00
2022-12-06T11:03:20.322Z,100873.00
2022-12-06T11:05:50.296Z,100861.00
2022-12-06T11:08:22.659Z,100869.00
2022-12-06T11:10:52.396Z,100856.00
2022-12-06T11:13:23.433Z,100851.00
2022-12-06T11:15:56.212Z,100863.00
2022-12-06T11:18:29.221Z,100856.00
2022-12-06T11:21:03.637Z,100861.00
2022-12-06T11:23:39.310Z,100862.00
2022-12-06T11:26:15.122Z,100868.00
2022-12-06T11:28:45.812Z,100855.00
2022-12-06T11:31:21.107Z,100854.00
2022-12-06T11:33:50.335Z,100849.00
2022-12-06T11:36:21.239Z,100849.00
2022-12-06T11:38:49.007Z,100853.00
2022-12-06T11:41:22.349Z,100856.00
2022-12-06T11:43:50.715Z,100853.00
2022-12-06T11:46:18.750Z,100836.00
2022-12-06T11:48:57.788Z,100835.00
2022-12-06T11:51:27.381Z,100847.00
2022-12-06T11:54:00.463Z,100794.00
2022-12-06T11:56:31.010Z,100799.00
2022-12-06T11:59:16.828Z,100832.00
2022-12-06T12:01:47.092Z,100778.00
2022-12-06T12:04:40.324Z,100801.00
2022-12-06T12:07:16.636Z,100836.00
2022-12-06T12:09:52.979Z,100823.00
2022-12-06T12:12:24.998Z,100806.00
2022-12-06T12:14:58.778Z,100820.00
2022-12-06T12:17:33.536Z,100850.00
2022-12-06T12:20:14.910Z,100838.00
2022-12-06T12:22:44.996Z,100838.00
2022-12-06T12:25:26.538Z,100785.00
2022-12-06T12:27:58.426Z,100807.00
2022-12-06T12:30:33.161Z,100804.00
2022-12-06T12:33:28.660Z,100814.00
2022-12-06T12:36:17.656Z,100827.00
2022-12-06T12:39:01.126Z,100797.00
2022-12-06T12:41:34.979Z,100823.00
2022-12-06T12:44:37.629Z,100777.00
2022-12-06T12:47:23.772Z,100812.00
2022-12-06T12:50:08.570Z,100778.00
2022-12-06T12:52:41.453Z,100788.00
2022-12-06T12:55:28.071Z,100807.00
2022-12-06T12:57:57.695Z,100766.00
2022-12-06T13:00:27.284Z,100801.00
2022-12-06T13:04:07.309Z,100816.00
2022-12-06T13:07:06.216Z,100781.00
2022-12-06T13:09:54.309Z,100775.00
2022-12-06T13:12:33.978Z,100797.00
2022-12-06T13:15:18.214Z,100803.00
2022-12-06T13:17:52.874Z,100812.00
2022-12-06T13:20:27.511Z,100823.00
2022-12-06T13:22:58.790Z,100797.00
2022-12-06T13:25:28.259Z,100809.00
2022-12-06T13:28:05.037Z,100796.00
2022-12-06T13:30:36.707Z,100760.00
2022-12-06T13:33:08.287Z,100797.00
2022-12-06T13:35:40.088Z,100771.00
2022-12-06T13:38:26.964Z,100808.00
2022-12-06T13:40:58.602Z,100775.00
2022-12-06T13:43:51.365Z,100807.00
2022-12-06T13:46:33.393Z,100797.00
2022-12-06T13:49:03.589Z,100804.00
2022-12-06T13:51:48.081Z,100777.00
2022-12-06T13:54:39.553Z,100792.00
2022-12-06T13:57:29.860Z,100802.00
2022-12-06T13:59:58.474Z,100794.00
2022-12-06T14:02:57.090Z,100772.00
2022-12-06T14:06:07.535Z,100818.00
2022-12-06T14:08:41.853Z,100797.00
2022-12-06T14:11:22.395Z,100811.00
2022-12-06T14:14:02.070Z,100809.00
2022-12-06T14:16:35.506Z,100784.00
2022-12-06T14:19:13.246Z,100764.00
2022-12-06T14:21:43.478Z,100799.00
2022-12-06T14:24:27.245Z,100803.00
2022-12-06T14:26:55.200Z,100794.00
2022-12-06T14:29:25.692Z,100794.00
2022-12-06T14:31:56.729Z,100805.00
2022-12-06T14:34:29.264Z,100790.00
2022-12-06T14:37:03.038Z,100796.00
2022-12-06T14:39:33.674Z,100797.00
2022-12-06T14:42:21.805Z,100800.00
2022-12-06T14:44:57.380Z,100775.00
2022-12-06T14:47:30.328Z,100791.00
2022-12-06T14:50:28.230Z,100806.00
2022-12-06T14:52:59.565Z,100794.00
2022-12-06T14:55:29.144Z,100816.00
2022-12-06T14:57:59.584Z,100817.00
2022-12-06T15:00:35.853Z,100811.00
2022-12-06T15:03:23.757Z,100824.00
2022-12-06T15:05:57.556Z,100806.00
2022-12-06T15:08:34.932Z,100795.00
2022-12-06T15:11:05.211Z,100776.00
2022-12-06T15:13:32.574Z,100810.00
2022-12-06T15:16:07.920Z,100778.00
2022-12-06T15:18:39.406Z,100779.00
2022-12-06T15:21:37.581Z,100766.00
2022-12-06T15:32:12.888Z,100779.00
2022-12-06T15:44:54.331Z,100843.00
2022-12-06T15:51:20.802Z,100780.00
2022-12-06T15:53:50.412Z,100830.00
2022-12-06T15:56:22.982Z,100818.00
2022-12-06T15:58:52.952Z,100817.00
2022-12-06T16:01:23.316Z,100816.00
2022-12-06T16:03:53.363Z,100822.00
2022-12-06T16:06:24.584Z,100751.00
2022-12-06T16:09:10.929Z,100775.00
2022-12-06T16:11:53.250Z,100781.00
2022-12-06T16:14:23.977Z,100775.00
2022-12-06T16:16:53.059Z,100803.00
2022-12-06T16:19:24.976Z,100790.00
2022-12-06T16:22:01.809Z,100758.00
2022-12-06T16:24:28.675Z,100801.00
2022-12-06T16:26:56.580Z,100758.00
2022-12-06T16:29:25.053Z,100821.00
2022-12-06T16:31:56.708Z,100782.00
2022-12-06T16:34:42.524Z,100764.00
2022-12-06T16:37:13.122Z,100784.00
2022-12-06T16:39:41.120Z,100761.00
2022-12-06T16:42:11.183Z,100792.00
2022-12-06T16:44:53.480Z,100794.00
2022-12-06T16:50:07.348Z,100796.00
2022-12-06T16:52:41.630Z,100795.00
2022-12-06T16:55:11.909Z,100792.00
2022-12-06T16:57:39.954Z,100772.00
2022-12-06T17:00:09.124Z,100801.00
2022-12-06T17:02:37.062Z,100774.00
2022-12-06T17:05:07.164Z,100730.00
2022-12-06T17:07:35.882Z,100781.00
2022-12-06T17:10:06.327Z,100787.00
2022-12-06T17:12:34.160Z,100794.00
2022-12-06T17:18:09.720Z,100759.00
2022-12-06T17:20:40.089Z,100749.00
2022-12-06T17:23:08.034Z,100750.00
2022-12-06T17:25:40.232Z,100782.00
2022-12-06T17:28:08.023Z,100785.00
2022-12-06T17:30:35.858Z,100785.00
2022-12-06T17:33:03.716Z,100790.00
2022-12-06T17:35:32.157Z,100784.00
2022-12-06T17:38:00.456Z,100787.00
2022-12-06T17:40:28.251Z,100791.00
2022-12-06T17:43:00.364Z,100775.00
2022-12-06T17:45:28.801Z,100780.00
2022-12-06T17:47:56.861Z,100787.00
2022-12-06T17:50:32.738Z,100766.00
2022-12-06T17:53:00.541Z,100750.00
2022-12-06T17:55:28.313Z,100793.00
2022-12-06T17:57:57.493Z,100792.00
2022-12-06T18:00:28.489Z,100766.00
2022-12-06T18:03:05.950Z,100795.00
2022-12-06T18:05:34.445Z,100795.00
2022-12-06T18:08:02.318Z,100752.00
2022-12-06T18:10:30.182Z,100788.00
2022-12-06T18:13:02.765Z,100780.00
2022-12-06T18:15:40.767Z,100797.00
2022-12-06T18:18:08.667Z,100792.00
2022-12-06T18:20:36.480Z,100789.00
2022-12-06T18:23:04.379Z,100797.00
2022-12-06T18:25:32.195Z,100795.00
2022-12-06T18:28:01.294Z,100796.00
2022-12-06T18:30:29.078Z,100783.00
2022-12-06T18:32:56.914Z,100795.00
2022-12-06T18:35:24.677Z,100797.00
2022-12-06T18:37:52.615Z,100793.00
2022-12-06T18:40:20.503Z,100789.00
2022-12-06T18:42:48.341Z,100789.00
2022-12-06T18:45:17.979Z,100784.00
2022-12-06T18:47:45.780Z,100786.00
2022-12-06T18:50:13.544Z,100784.00
2022-12-06T18:52:41.881Z,100781.00
2022-12-06T18:55:10.078Z,100792.00
2022-12-06T18:57:38.406Z,100791.00
2022-12-06T19:00:07.648Z,100773.00
2022-12-06T19:02:36.945Z,100761.00
2022-12-06T19:05:05.488Z,100787.00
2022-12-06T19:07:33.374Z,100775.00
2022-12-06T19:10:01.548Z,100776.00
2022-12-06T19:12:29.463Z,100771.00
2022-12-06T19:14:57.302Z,100772.00
2022-12-06T19:17:25.066Z,100769.00
2022-12-06T19:19:54.338Z,100757.00
2022-12-06T19:22:22.277Z,100767.00
2022-12-06T19:24:50.423Z,100738.00
2022-12-06T19:27:20.726Z,100739.00
2022-12-06T19:29:48.916Z,100738.00
2022-12-06T19:32:16.915Z,100772.00
2022-12-06T19:34:44.704Z,100765.00
2022-12-06T19:37:14.020Z,100777.00
2022-12-06T19:39:41.966Z,100764.00
2022-12-06T19:42:27.306Z,100776.00
2022-12-06T19:44:55.255Z,100761.00
2022-12-06T19:47:23.698Z,100752.00
2022-12-06T19:49:51.930Z,100775.00
2022-12-06T19:52:29.304Z,100762.00
2022-12-06T19:54:58.695Z,100767.00
2022-12-06T19:57:26.985Z,100759.00
2022-12-06T19:59:56.511Z,100762.00
2022-12-06T20:02:24.441Z,100755.00
2022-12-06T20:04:54.682Z,100763.00
2022-12-06T20:07:24.007Z,100735.00
2022-12-06T20:09:52.650Z,100748.00
2022-12-06T20:12:27.501Z,100750.00
2022-12-06T20:14:55.428Z,100760.00
2022-12-06T20:17:24.651Z,100730.00
2022-12-06T20:19:55.075Z,100750.00
2022-12-06T20:22:24.426Z,100746.00
2022-12-06T20:24:52.599Z,100756.00
2022-12-06T20:27:41.784Z,100741.00
2022-12-06T20:30:10.782Z,100745.00
2022-12-06T20:32:38.598Z,100736.00
2022-12-06T20:35:06.662Z,100740.00
2022-12-06T20:37:36.576Z,100710.00
2022-12-06T20:40:04.864Z,100722.00
2022-12-06T20:42:33.360Z,100739.00
2022-12-06T20:45:01.863Z,100738.00
2022-12-06T20:47:29.748Z,100728.00
2022-12-06T20:49:57.575Z,100714.00
2022-12-06T20:52:25.742Z,100724.00
2022-12-06T20:54:58.829Z,100694.00
2022-12-06T20:57:27.144Z,100726.00
2022-12-06T20:59:54.903Z,100722.00
2022-12-06T21:02:22.725Z,100713.00
2022-12-06T21:04:51.460Z,100705.00
2022-12-06T21:07:19.493Z,100690.00
2022-12-06T21:09:47.273Z,100711.00
2022-12-06T21:12:19.589Z,100704.00
2022-12-06T21:14:47.576Z,100694.00
2022-12-06T21:17:15.426Z,100685.00
2022-12-06T21:19:43.668Z,100694.00
2022-12-06T21:22:11.522Z,100682.00
2022-12-06T21:24:39.513Z,100695.00
2022-12-06T21:27:07.674Z,100696.00
2022-12-06T21:29:38.902Z,100695.00
2022-12-06T21:32:06.963Z,100695.00
2022-12-06T21:34:35.013Z,100688.00
2022-12-06T21:37:02.778Z,100661.00
2022-12-06T21:39:30.717Z,100644.00
2022-12-06T21:41:58.639Z,100672.00
2022-12-06T21:44:26.489Z,100632.00
2022-12-06T21:46:55.793Z,100672.00
2022-12-06T21:49:23.756Z,100664.00
2022-12-06T21:51:56.663Z,100671.00
2022-12-06T21:54:28.292Z,100643.00
2022-12-06T21:56:57.404Z,100659.00
2022-12-06T21:59:25.224Z,100667.00
2022-12-06T22:01:53.605Z,100666.00
2022-12-06T22:04:22.797Z,100665.00
2022-12-06T22:06:50.642Z,100682.00
2022-12-06T22:09:18.415Z,100641.00
2022-12-06T22:11:46.410Z,100667.00
2022-12-06T22:14:14.332Z,100649.00
2022-12-06T22:16:42.200Z,100673.00
2022-12-06T22:19:10.017Z,100673.00
2022-12-06T22:21:39.695Z,100665.00
2022-12-06T22:24:08.089Z,100655.00
2022-12-06T22:26:35.916Z,100627.00
2022-12-06T22:29:03.803Z,100660.00
2022-12-06T22:31:34.088Z,100666.00
2022-12-06T22:34:02.788Z,100651.00
2022-12-06T22:36:31.551Z,100631.00
2022-12-06T22:39:02.709Z,100679.00
2022-12-06T22:41:31.604Z,100630.00
2022-12-06T22:44:01.444Z,100653.00
2022-12-06T22:46:30.701Z,100657.00
2022-12-06T22:48:59.776Z,100646.00
2022-12-06T22:51:29.158Z,100641.00
2022-12-06T22:53:58.651Z,100615.00
2022-12-06T22:56:28.905Z,100633.00
2022-12-06T22:58:58.302Z,100626.00
2022-12-06T23:01:28.185Z,100634.00
2022-12-06T23:03:56.366Z,100620.00
2022-12-06T23:06:26.195Z,100618.00
2022-12-06T23:08:55.173Z,100620.00
2022-12-06T23:11:24.880Z,100617.00
2022-12-06T23:13:55.179Z,100625.00
2022-12-06T23:16:25.309Z,100599.00
2022-12-06T23:18:53.717Z,100604.00
2022-12-06T23:21:25.915Z,100615.00
2022-12-06T23:23:55.889Z,100606.00
2022-12-06T23:26:25.725Z,100622.00
2022-12-06T23:28:55.395Z,100596.00
2022-12-06T23:31:25.182Z,100601.00
2022-12-06T23:33:58.549Z,100571.00
2022-12-06T23:36:28.939Z,100590.00
2022-12-06T23:38:57.055Z,100583.00
2022-12-06T23:41:26.648Z,100599.00
2022-12-06T23:43:57.595Z,100604.00
2022-12-06T23:46:27.207Z,100591.00
2022-12-06T23:48:55.721Z,100576.00
2022-12-06T23:51:25.356Z,100543.00
2022-12-06T23:53:56.847Z,100560.00
2022-12-06T23:56:27.803Z,100569.00
2022-12-06T23:58:57.920Z,100568.00
